Time;durP1;ratioP1;P1;durP2;ratioP2;P2;SDS_P1;SDS_P2;PMS_P1;PMS_P2;Temp;Humidity;BMP_temperature;BMP_pressure;BME280_temperature;BME280_humidity;BME280_pressure;Samples;Min_cycle;Max_cycle;Signal;HPM_P1;HPM_P2
2020/12/12 00:01:59;;;;;;;46.88;12.00;;;;;;;-144.15;0.00;65763.66;10236757;28;20088;-72
2020/12/12 00:06:59;;;;;;;64.75;12.10;;;;;;;-144.15;0.00;65763.66;10235971;28;20061;-72
2020/12/12 00:11:57;;;;;;;55.50;11.68;;;;;;;-144.15;0.00;65763.66;10235017;28;20057;-73
2020/12/12 00:16:56;;;;;;;45.38;13.02;;;;;;;-144.15;0.00;65763.66;10236077;28;20095;-73
2020/12/12 00:21:54;;;;;;;35.70;11.45;;;;;;;-144.15;0.00;65763.66;10234406;28;20069;-73
2020/12/12 00:26:56;;;;;;;52.65;11.45;;;;;;;-144.15;0.00;65763.66;10235092;28;20073;-72
2020/12/12 00:31:55;;;;;;;43.05;11.75;;;;;;;-144.15;0.00;65763.66;10235202;28;20038;-72
2020/12/12 00:36:53;;;;;;;33.55;11.95;;;;;;;-144.15;0.00;65763.66;10234301;28;20076;-71
2020/12/12 00:41:51;;;;;;;34.65;12.63;;;;;;;-144.15;0.00;65763.66;10234511;28;20061;-73
2020/12/12 00:46:50;;;;;;;31.02;10.07;;;;;;;-144.15;0.00;65763.66;10235052;28;20463;-73
2020/12/12 00:51:49;;;;;;;23.05;10.48;;;;;;;-144.15;0.00;65763.66;10238203;28;20069;-72
2020/12/12 00:56:47;;;;;;;19.83;9.35;;;;;;;-144.15;0.00;65763.66;10234173;28;20072;-73
2020/12/12 01:01:45;;;;;;;33.40;9.98;;;;;;;-144.15;0.00;65763.66;10234608;28;20053;-73
2020/12/12 01:06:46;;;;;;;22.80;9.45;;;;;;;-144.15;0.00;65763.66;10234264;28;20084;-73
2020/12/12 01:11:45;;;;;;;28.77;9.07;;;;;;;-144.15;0.00;65763.66;10233561;28;20096;-73
2020/12/12 01:16:43;;;;;;;71.63;11.23;;;;;;;-144.15;0.00;65763.66;10233894;28;20049;-73
2020/12/12 01:21:41;;;;;;;44.70;9.35;;;;;;;-144.15;0.00;65763.66;10234296;28;20073;-72
2020/12/12 01:26:43;;;;;;;74.97;11.43;;;;;;;-144.15;0.00;65763.66;10233902;28;20079;-72
2020/12/12 01:31:42;;;;;;;63.17;11.80;;;;;;;-144.15;0.00;65763.66;10227472;28;20099;-74
2020/12/12 01:36:41;;;;;;;87.28;12.57;;;;;;;-144.15;0.00;65763.66;10233836;28;20073;-72
2020/12/12 01:41:39;;;;;;;102.13;12.48;;;;;;;-144.15;0.00;65763.66;10226903;28;20045;-72
2020/12/12 01:46:37;;;;;;;45.83;9.43;;;;;;;-144.15;0.00;65763.66;10233414;28;20076;-72
2020/12/12 01:51:37;;;;;;;49.67;9.85;;;;;;;-144.15;0.00;65763.66;10237895;28;20423;-73
2020/12/12 01:56:35;;;;;;;56.88;9.55;;;;;;;-144.15;0.00;65763.66;10233096;28;20081;-72
2020/12/12 02:01:54;;;;;;;42.72;9.35;;;;;;;-144.15;0.00;65763.66;10228619;28;20077;-72
2020/12/12 02:06:53;;;;;;;88.68;11.85;;;;;;;-144.15;0.00;65763.66;10237777;28;20084;-73
2020/12/12 02:11:51;;;;;;;62.45;9.18;;;;;;;-144.15;0.00;65763.66;10240597;28;20435;-72
2020/12/12 02:16:56;;;;;;;52.92;10.07;;;;;;;-144.15;0.00;65763.66;10240870;28;20072;-73
2020/12/12 02:21:56;;;;;;;51.65;8.35;;;;;;;-144.15;0.00;65763.66;10240608;28;20073;-72
2020/12/12 02:26:54;;;;;;;39.20;7.97;;;;;;;-144.15;0.00;65763.66;10239509;28;20514;-72
2020/12/12 02:31:51;;;;;;;81.78;9.27;;;;;;;-144.15;0.00;65763.66;10237629;28;20065;-72
2020/12/12 02:36:49;;;;;;;48.05;8.20;;;;;;;-144.15;0.00;65763.66;10237540;28;20073;-72
2020/12/12 02:41:48;;;;;;;98.63;12.50;;;;;;;-144.15;0.00;65763.66;10238215;28;20072;-73
2020/12/12 02:46:45;;;;;;;168.70;16.23;;;;;;;-144.15;0.00;65763.66;10238929;28;20069;-74
2020/12/12 02:51:43;;;;;;;47.85;8.45;;;;;;;-144.15;0.00;65763.66;10242666;28;20073;-73
2020/12/12 02:56:42;;;;;;;88.68;10.95;;;;;;;-144.15;0.00;65763.66;10238737;28;20479;-73
2020/12/12 03:01:41;;;;;;;67.88;9.63;;;;;;;-144.15;0.00;65763.66;10232791;28;20072;-73
2020/12/12 03:06:43;;;;;;;44.90;8.88;;;;;;;-144.15;0.00;65763.66;10238366;28;20068;-73
2020/12/12 03:11:42;;;;;;;36.92;9.38;;;;;;;-144.15;0.00;65763.66;10232754;28;20085;-73
2020/12/12 03:16:41;;;;;;;86.78;12.13;;;;;;;-144.15;0.00;65763.66;10238328;28;20080;-71
2020/12/12 03:21:39;;;;;;;63.92;9.52;;;;;;;-144.15;0.00;65763.66;10231638;28;20073;-73
2020/12/12 03:26:37;;;;;;;30.33;10.35;;;;;;;-144.15;0.00;65763.66;10237468;28;20065;-73
2020/12/12 03:31:35;;;;;;;59.20;9.40;;;;;;;-32.16;0.00;65763.66;10237509;28;20514;-72
2020/12/12 03:36:34;;;;;;;34.28;9.27;;;;;;;-144.15;0.00;65763.66;10237109;28;20060;-72
2020/12/12 03:41:32;;;;;;;43.92;10.73;;;;;;;-144.15;0.00;65763.66;10236893;28;20077;-72
2020/12/12 03:46:30;;;;;;;25.98;8.88;;;;;;;-144.15;0.00;65763.66;10236815;28;20069;-72
2020/12/12 03:51:28;;;;;;;62.95;9.98;;;;;;;5.63;0.00;65763.66;10240830;28;20084;-75
2020/12/12 03:56:27;;;;;;;67.80;10.57;;;;;;;-144.15;0.00;65763.66;10236940;28;20084;-73
2020/12/12 04:01:25;;;;;;;96.53;12.77;;;;;;;-144.15;0.00;65763.66;10236153;28;20072;-73
2020/12/12 04:06:22;;;;;;;72.95;10.50;;;;;;;-144.15;0.00;65763.66;10235961;28;20095;-72
2020/12/12 04:11:20;;;;;;;67.88;10.07;;;;;;;-144.15;0.00;65763.66;10236116;28;20472;-72
2020/12/12 04:16:19;;;;;;;46.03;9.40;;;;;;;-144.15;0.00;65763.66;10235750;28;20081;-72
2020/12/12 04:21:17;;;;;;;70.22;9.57;;;;;;;-144.15;0.00;65763.66;10235295;28;20478;-72
2020/12/12 04:26:14;;;;;;;70.35;10.35;;;;;;;-144.15;0.00;65763.66;10234906;28;20069;-73
2020/12/12 04:31:12;;;;;;;80.60;11.80;;;;;;;-144.15;0.00;65763.66;10234510;28;20034;-72
2020/12/12 04:36:11;;;;;;;71.20;9.95;;;;;;;-144.15;0.00;65763.66;10235596;28;20073;-72
2020/12/12 04:41:10;;;;;;;99.18;11.05;;;;;;;-75.15;0.00;65763.66;10234951;28;20080;-73
2020/12/12 04:46:07;;;;;;;86.63;12.85;;;;;;;-144.15;0.00;65763.66;10234953;28;20493;-72
2020/12/12 04:51:06;;;;;;;45.30;9.95;;;;;;;-81.66;0.00;65763.66;10238872;28;20499;-73
2020/12/12 04:56:05;;;;;;;36.90;8.73;;;;;;;-80.36;0.00;65763.66;10234062;28;20076;-73
2020/12/12 05:01:03;;;;;;;62.65;10.60;;;;;;;-81.66;0.00;65763.66;10234477;28;20562;-74
2020/12/12 05:06:00;;;;;;;33.55;9.05;;;;;;;-71.24;0.00;65763.66;10233624;28;20073;-74
2020/12/12 05:11:02;;;;;;;66.65;13.82;;;;;;;-73.85;0.00;65763.66;10233609;28;20046;-74
2020/12/12 05:16:01;;;;;;;46.90;12.43;;;;;;;-79.06;0.00;65763.66;10233842;28;20049;-74
2020/12/12 05:20:59;;;;;;;55.40;13.32;;;;;;;-79.06;0.00;65763.66;10234539;28;20049;-74
2020/12/12 05:25:57;;;;;;;26.95;11.32;;;;;;;-76.45;0.00;65763.66;10233567;28;20049;-74
2020/12/12 05:30:55;;;;;;;50.60;13.98;;;;;;;-144.15;0.00;65763.66;10233487;28;20190;-74
2020/12/12 05:35:54;;;;;;;44.22;12.82;;;;;;;-67.34;0.00;65763.66;10233413;28;20065;-75
2020/12/12 05:40:54;;;;;;;78.78;14.70;;;;;;;5.63;0.00;65763.66;10238260;28;20050;-72
2020/12/12 05:45:52;;;;;;;54.05;14.65;;;;;;;-88.17;0.00;65763.66;10239798;28;20065;-73
2020/12/12 05:50:51;;;;;;;58.08;17.35;;;;;;;5.63;0.00;65763.66;10244526;28;20063;-70
2020/12/12 05:55:49;;;;;;;46.17;16.45;;;;;;;-110.31;0.00;65763.66;10241068;28;20239;-71
2020/12/12 06:00:48;;;;;;;45.05;15.45;;;;;;;5.63;0.00;65763.66;10240588;28;20092;-71
2020/12/12 06:05:57;;;;;;;26.77;12.17;;;;;;;5.63;0.00;65763.66;10240600;28;20096;-72
2020/12/12 06:11:00;;;;;;;39.90;15.25;;;;;;;5.63;0.00;65763.66;10240823;28;20053;-73
2020/12/12 06:16:02;;;;;;;23.48;11.02;;;;;;;5.63;0.00;65763.66;10240350;28;20069;-73
2020/12/12 06:21:07;;;;;;;21.90;10.93;;;;;;;5.63;0.00;65763.66;10240683;28;20549;-72
2020/12/12 06:26:06;;;;;;;24.95;10.32;;;;;;;-107.70;0.00;65763.66;10239882;28;20076;-72
2020/12/12 06:31:05;;;;;;;20.73;12.65;;;;;;;5.63;0.00;65763.66;10240290;28;20041;-74
2020/12/12 06:36:22;;;;;;;17.25;10.98;;;;;;;-131.13;0.00;65763.66;10241995;28;20160;-73
2020/12/12 06:41:34;;;;;;;13.82;9.40;;;;;;;-132.44;0.00;65763.66;10248488;28;20072;-75
2020/12/12 06:46:51;;;;;;;15.98;11.90;;;;;;;5.63;0.00;65763.66;10239274;28;20073;-73
2020/12/12 06:51:50;;;;;;;14.50;12.32;;;;;;;5.63;0.00;65763.66;10239679;28;20049;-73
2020/12/12 06:56:49;;;;;;;15.07;10.27;;;;;;;5.63;0.00;65763.66;10238318;28;20423;-72
2020/12/12 07:01:52;;;;;;;18.80;10.75;;;;;;;5.63;0.00;65763.66;10237807;28;20080;-72
2020/12/12 07:06:56;;;;;;;12.18;9.18;;;;;;;5.63;0.00;65763.66;10239467;28;20081;-73
2020/12/12 07:11:56;;;;;;;12.43;8.07;;;;;;;5.63;0.00;65763.66;10238302;28;20062;-70
2020/12/12 07:16:56;;;;;;;10.68;8.05;;;;;;;5.63;0.00;65763.66;10238932;28;20499;-72
2020/12/12 07:21:55;;;;;;;14.38;8.55;;;;;;;184.39;0.00;65763.66;10238495;28;20080;-73
2020/12/12 07:26:53;;;;;;;11.55;8.93;;;;;;;4.33;0.00;65763.66;10237868;28;20080;-73
2020/12/12 07:31:52;;;;;;;12.63;9.38;;;;;;;4.33;0.00;65763.66;10237911;28;20482;-73
2020/12/12 07:36:57;;;;;;;7.05;5.55;;;;;;;4.33;0.00;65763.66;10245711;28;20516;-73
2020/12/12 07:41:57;;;;;;;8.13;6.60;;;;;;;4.33;0.00;65763.66;10241662;28;20042;-73
2020/12/12 07:46:57;;;;;;;10.55;9.18;;;;;;;4.33;0.00;65763.66;10236832;28;20092;-74
2020/12/12 07:51:59;;;;;;;13.68;9.20;;;;;;;4.33;0.00;65763.66;10237788;28;20084;-74
2020/12/12 07:56:57;;;;;;;13.55;10.65;;;;;;;4.33;0.00;65763.66;10237373;28;20083;-74
2020/12/12 08:02:00;;;;;;;8.68;6.65;;;;;;;4.33;0.00;65763.66;10236334;28;20172;-71
2020/12/12 08:07:02;;;;;;;17.23;12.18;;;;;;;4.33;0.00;65763.66;10236348;28;20156;-72
2020/12/12 08:12:02;;;;;;;17.73;10.63;;;;;;;4.33;0.00;65763.66;10236455;28;20064;-72
2020/12/12 08:17:01;;;;;;;21.02;13.05;;;;;;;4.33;0.00;65763.66;10235415;28;20107;-73
2020/12/12 08:22:11;;;;;;;21.27;13.50;;;;;;;4.33;0.00;65763.66;10235973;28;20406;-73
2020/12/12 08:27:11;;;;;;;30.55;19.42;;;;;;;4.33;0.00;65763.66;10235912;28;20490;-70
2020/12/12 08:32:25;;;;;;;12.52;9.70;;;;;;;4.33;0.00;65763.66;10235760;28;20499;-72
2020/12/12 08:37:23;;;;;;;35.97;22.10;;;;;;;4.33;0.00;65763.66;10248122;28;20049;-71
2020/12/12 08:42:23;;;;;;;35.65;18.90;;;;;;;4.33;0.00;65763.66;10236417;28;20052;-71
2020/12/12 08:47:21;;;;;;;21.75;18.13;;;;;;;4.33;0.00;65763.66;10233887;28;20049;-71
2020/12/12 08:52:25;;;;;;;20.60;14.25;;;;;;;4.33;0.00;65763.66;10235262;28;20088;-70
2020/12/12 08:57:23;;;;;;;30.65;16.50;;;;;;;4.33;0.00;65763.66;10234877;28;20072;-72
2020/12/12 09:02:22;;;;;;;20.70;15.32;;;;;;;5.63;0.00;65763.66;10235590;28;20049;-73
2020/12/12 09:07:23;;;;;;;20.17;15.10;;;;;;;4.33;0.00;65763.66;10233793;28;20491;-72
2020/12/12 09:12:20;;;;;;;20.42;13.45;;;;;;;5.63;0.00;65763.66;10234243;28;20077;-72
2020/12/12 09:17:18;;;;;;;23.48;15.23;;;;;;;5.63;0.00;65763.66;10247547;28;20085;-71
2020/12/12 09:22:17;;;;;;;13.15;11.60;;;;;;;5.63;0.00;65763.66;10247975;28;20073;-72
2020/12/12 09:27:15;;;;;;;30.05;24.13;;;;;;;5.63;0.00;65763.66;10246935;28;20080;-73
2020/12/12 09:32:12;;;;;;;18.77;16.25;;;;;;;5.63;0.00;65763.66;10246956;28;20480;-71
2020/12/12 09:37:11;;;;;;;23.25;19.10;;;;;;;5.63;0.00;65763.66;10249546;28;20076;-71
2020/12/12 09:42:10;;;;;;;29.25;25.85;;;;;;;5.63;0.00;65763.66;10246818;28;20545;-71
2020/12/12 09:47:08;;;;;;;18.05;16.25;;;;;;;5.63;0.00;65763.66;10245853;28;20073;-71
2020/12/12 09:52:10;;;;;;;10.07;9.02;;;;;;;5.63;0.00;65763.66;10246043;28;20065;-72
2020/12/12 09:57:08;;;;;;;12.45;9.95;;;;;;;5.63;0.00;65763.66;10246988;28;20081;-72
2020/12/12 10:02:07;;;;;;;9.43;8.00;;;;;;;5.63;0.00;65763.66;10246693;28;20466;-72
2020/12/12 10:07:05;;;;;;;11.55;10.35;;;;;;;5.63;0.00;65763.66;10243795;28;20065;-72
2020/12/12 10:12:02;;;;;;;11.25;9.63;;;;;;;5.63;0.00;65763.66;10247125;28;20057;-72
2020/12/12 10:17:00;;;;;;;18.33;12.65;;;;;;;5.63;0.00;65763.66;10246629;28;20081;-73
2020/12/12 10:21:59;;;;;;;19.48;14.90;;;;;;;5.63;0.00;65763.66;10246710;28;20050;-72
2020/12/12 10:26:56;;;;;;;12.38;9.73;;;;;;;5.63;0.00;65763.66;10242144;28;20075;-73
2020/12/12 10:31:54;;;;;;;12.50;10.40;;;;;;;5.63;0.00;65763.66;10238645;28;20086;-72
2020/12/12 10:36:52;;;;;;;18.08;12.25;;;;;;;5.63;0.00;65763.66;10248675;28;20037;-74
2020/12/12 10:41:50;;;;;;;14.57;11.85;;;;;;;5.63;0.00;65763.66;10244684;28;20072;-73
2020/12/12 10:46:48;;;;;;;12.52;10.45;;;;;;;5.63;0.00;65763.66;10239656;28;20064;-72
2020/12/12 10:51:48;;;;;;;11.63;10.02;;;;;;;4.65;0.00;65763.66;10239636;28;20073;-72
2020/12/12 10:56:47;;;;;;;14.10;11.20;;;;;;;5.63;0.00;65763.66;10239746;28;20037;-72
2020/12/12 11:01:45;;;;;;;12.02;9.40;;;;;;;5.63;0.00;65763.66;10237113;28;20060;-73
2020/12/12 11:06:44;;;;;;;18.95;14.32;;;;;;;5.63;0.00;65763.66;10239412;28;20103;-74
2020/12/12 11:11:42;;;;;;;14.82;11.77;;;;;;;5.63;0.00;65763.66;10239857;28;20053;-72
2020/12/12 11:16:40;;;;;;;28.05;18.10;;;;;;;5.63;0.00;65763.66;10239095;28;20056;-73
2020/12/12 11:21:40;;;;;;;16.38;11.38;;;;;;;5.63;0.00;65763.66;10237804;28;20048;-72
2020/12/12 11:26:39;;;;;;;10.65;8.55;;;;;;;5.63;0.00;65763.66;10238123;28;20075;-73
2020/12/12 11:31:39;;;;;;;10.93;8.57;;;;;;;5.63;0.00;65763.66;10237973;28;20084;-73
2020/12/12 11:36:49;;;;;;;14.63;11.60;;;;;;;5.63;0.00;65763.66;10244274;28;20052;-72
2020/12/12 11:47:10;;;;;;;21.40;17.83;;;;;;;5.63;0.00;65763.66;10230487;28;20085;-73
2020/12/12 11:52:08;;;;;;;20.35;15.70;;;;;;;5.63;0.00;65763.66;10239648;28;20053;-73
2020/12/12 11:57:08;;;;;;;22.92;17.15;;;;;;;5.63;0.00;65763.66;10236865;28;20073;-72
2020/12/12 12:02:06;;;;;;;23.75;19.20;;;;;;;5.63;0.00;65763.66;10235931;28;20052;-72
2020/12/12 12:07:06;;;;;;;38.25;30.10;;;;;;;5.63;0.00;65763.66;10236944;28;20053;-72
2020/12/12 12:12:04;;;;;;;34.35;28.38;;;;;;;5.63;0.00;65763.66;10236623;28;20084;-74
2020/12/12 12:17:02;;;;;;;18.15;13.65;;;;;;;5.63;0.00;65763.66;10236269;28;20050;-72
2020/12/12 12:22:00;;;;;;;25.75;20.27;;;;;;;5.63;0.00;65763.66;10236116;28;20053;-72
2020/12/12 12:26:58;;;;;;;25.25;20.13;;;;;;;5.63;0.00;65763.66;10231995;28;20076;-72
2020/12/12 12:31:56;;;;;;;28.05;21.23;;;;;;;5.63;0.00;65763.66;10229436;28;20092;-72
2020/12/12 12:37:03;;;;;;;24.27;17.77;;;;;;;5.63;0.00;65763.66;10236356;28;20060;-72
2020/12/12 12:42:03;;;;;;;46.78;34.78;;;;;;;5.63;0.00;65763.66;10233488;28;20073;-71
2020/12/12 12:47:01;;;;;;;28.13;20.42;;;;;;;4.80;0.00;65763.66;10233840;28;20511;-72
2020/12/12 12:51:59;;;;;;;25.98;19.90;;;;;;;5.63;0.00;65763.66;10233007;28;20081;-71
2020/12/12 12:56:58;;;;;;;35.22;24.08;;;;;;;4.83;0.00;65763.66;10233265;28;20073;-72
2020/12/12 13:01:56;;;;;;;14.80;12.68;;;;;;;4.92;0.00;65763.66;10229313;28;20044;-72
2020/12/12 13:06:54;;;;;;;21.30;16.85;;;;;;;4.93;0.00;65763.66;10235007;28;20053;-73
2020/12/12 13:12:04;;;;;;;18.48;14.27;;;;;;;4.99;0.00;65763.66;10231569;28;20220;-73
2020/12/12 13:17:08;;;;;;;21.80;16.77;;;;;;;4.98;0.00;86673.50;10233007;28;20497;-73
2020/12/12 13:22:07;;;;;;;17.73;13.65;;;;;;;5.04;0.00;65763.66;10232927;28;20069;-72
2020/12/12 13:27:05;;;;;;;21.95;18.38;;;;;;;4.99;0.00;65763.66;10233566;28;20080;-74
2020/12/12 13:32:03;;;;;;;14.82;12.88;;;;;;;4.98;0.00;65763.66;10234084;28;20072;-72
2020/12/12 13:37:01;;;;;;;20.65;16.95;;;;;;;5.02;0.00;65763.66;10244332;28;20049;-73
2020/12/12 13:41:59;;;;;;;16.48;12.90;;;;;;;5.05;0.00;65907.41;10234310;28;20062;-71
2020/12/12 13:46:58;;;;;;;13.88;11.68;;;;;;;5.02;0.00;65907.41;10233665;28;20060;-71
2020/12/12 13:51:56;;;;;;;10.73;8.88;;;;;;;5.09;0.00;90581.78;10234418;28;20103;-73
2020/12/12 13:56:53;;;;;;;10.43;9.02;;;;;;;5.14;0.00;92368.38;10232867;28;20093;-72
2020/12/12 14:01:52;;;;;;;20.02;14.18;;;;;;;5.20;0.00;94334.31;10237691;28;20070;-71
2020/12/12 14:06:54;;;;;;;22.20;16.35;;;;;;;5.14;0.00;92368.38;10241722;28;20080;-72
2020/12/12 14:22:41;;;;;;;22.63;17.17;;;;;;;5.26;0.00;96473.09;10233038;28;20141;-70
2020/12/12 14:32:55;;;;;;;24.48;20.08;;;;;;;5.26;0.00;84215.88;10240375;28;20069;-72
2020/12/12 14:37:53;;;;;;;18.80;15.38;;;;;;;5.28;0.00;97183.28;10254389;28;20108;-71
2020/12/12 14:42:51;;;;;;;19.30;16.60;;;;;;;5.33;0.00;84215.88;10240430;28;20069;-73
2020/12/12 14:47:49;;;;;;;22.80;20.00;;;;;;;5.36;0.00;84215.88;10240153;28;20080;-72
2020/12/12 14:52:47;;;;;;;26.50;22.02;;;;;;;5.39;0.00;84215.88;10235108;28;20077;-71
2020/12/12 14:57:46;;;;;;;17.27;14.55;;;;;;;5.45;0.00;84215.88;10239281;28;20041;-72
2020/12/12 15:02:44;;;;;;;16.35;13.52;;;;;;;5.47;0.00;84215.88;10239151;28;20068;-72
2020/12/12 15:07:43;;;;;;;23.65;16.58;;;;;;;5.46;0.00;84215.88;10239726;28;20057;-72
2020/12/12 15:12:42;;;;;;;29.23;21.15;;;;;;;5.54;0.00;84215.88;10236923;28;20708;-70
2020/12/12 15:17:42;;;;;;;29.33;23.70;;;;;;;5.63;0.00;84215.88;10236395;28;20072;-71
2020/12/12 15:22:40;;;;;;;22.65;20.33;;;;;;;5.67;0.00;84390.44;10231696;28;20072;-71
2020/12/12 15:27:37;;;;;;;27.88;24.77;;;;;;;5.74;0.00;84390.44;10226774;28;20069;-70
2020/12/12 15:32:35;;;;;;;27.75;24.73;;;;;;;5.81;0.00;84390.44;10230062;28;20514;-70
2020/12/12 15:37:34;;;;;;;37.85;29.45;;;;;;;5.87;0.00;84390.44;10233324;28;20469;-70
2020/12/12 15:42:32;;;;;;;23.50;20.67;;;;;;;5.92;0.00;84390.44;10231831;28;20546;-71
2020/12/12 15:47:30;;;;;;;24.48;21.83;;;;;;;6.01;0.00;84390.44;10237141;28;20527;-71
2020/12/12 15:52:28;;;;;;;26.67;22.45;;;;;;;6.04;0.00;154705.16;10236366;28;20467;-72
2020/12/12 15:57:27;;;;;;;24.88;22.25;;;;;;;6.07;0.00;84390.44;10250940;28;20042;-75
2020/12/12 16:02:25;;;;;;;18.40;16.10;;;;;;;6.09;0.00;84390.44;10229682;28;20069;-74
2020/12/12 16:07:23;;;;;;;72.82;38.00;;;;;;;6.11;0.00;84390.44;10226222;28;20061;-76
2020/12/12 16:12:21;;;;;;;206.90;91.95;;;;;;;6.04;0.00;84390.44;10229033;28;20091;-74
2020/12/12 16:17:20;;;;;;;41.85;22.85;;;;;;;6.10;0.00;84390.44;10244993;28;20080;-75
2020/12/12 16:22:18;;;;;;;85.57;39.15;;;;;;;6.06;0.00;84390.44;10235164;28;20084;-75
2020/12/12 16:27:16;;;;;;;377.83;172.40;;;;;;;6.01;0.00;84390.44;10244369;28;20104;-75
2020/12/12 16:32:13;;;;;;;65.47;37.80;;;;;;;5.87;0.00;84390.44;10219580;28;20104;-73
2020/12/12 16:37:13;;;;;;;84.55;50.05;;;;;;;5.77;0.00;84390.44;10235971;28;20092;-74
2020/12/12 16:42:11;;;;;;;56.08;33.83;;;;;;;5.80;0.00;84390.44;10234888;28;20160;-73
2020/12/12 16:47:09;;;;;;;121.88;73.68;;;;;;;5.76;0.00;84390.44;10233693;28;20080;-73
2020/12/12 16:52:08;;;;;;;71.78;44.67;;;;;;;5.72;0.00;84390.44;10233217;28;20069;-71
2020/12/12 16:57:07;;;;;;;92.60;61.90;;;;;;;5.64;0.00;84390.44;10234328;28;20422;-72
2020/12/12 17:02:05;;;;;;;76.60;52.38;;;;;;;5.55;0.00;84215.88;10231160;28;20065;-73
2020/12/12 17:07:03;;;;;;;40.15;29.35;;;;;;;5.45;0.00;84215.88;10252967;28;20076;-72
2020/12/12 17:12:02;;;;;;;34.22;22.38;;;;;;;5.49;0.00;84215.88;10226892;28;20080;-73
2020/12/12 17:17:01;;;;;;;67.13;44.72;;;;;;;5.46;0.00;84215.88;10232015;28;20069;-74
2020/12/12 17:21:59;;;;;;;150.57;98.22;;;;;;;5.49;0.00;104459.13;10232773;28;20525;-74
2020/12/12 17:26:58;;;;;;;171.02;119.10;;;;;;;5.50;0.00;84215.88;10231546;28;20495;-71
2020/12/12 17:31:56;;;;;;;371.98;230.10;;;;;;;5.48;0.00;104123.50;10233768;28;20505;-71
2020/12/12 17:36:55;;;;;;;173.63;77.40;;;;;;;5.45;0.00;102938.19;10236212;28;20081;-69
2020/12/12 17:41:53;;;;;;;148.65;70.43;;;;;;;5.43;0.00;84215.88;10241920;28;20049;-73
2020/12/12 17:46:56;;;;;;;106.40;57.78;;;;;;;5.38;0.00;100524.97;10241165;28;20037;-72
2020/12/12 17:51:55;;;;;;;41.42;25.30;;;;;;;5.46;0.00;103448.09;10240985;28;20215;-71
2020/12/12 17:56:53;;;;;;;49.90;34.97;;;;;;;5.37;0.00;100176.31;10241849;28;20044;-71
2020/12/12 18:01:53;;;;;;;51.60;31.90;;;;;;;5.29;0.00;97537.69;10242550;28;20057;-71
2020/12/12 18:06:51;;;;;;;48.80;32.78;;;;;;;5.35;0.00;99651.81;10242015;28;20057;-72
2020/12/12 18:11:50;;;;;;;38.45;27.65;;;;;;;5.31;0.00;98068.28;10239701;28;20564;-72
2020/12/12 18:16:48;;;;;;;23.45;18.27;;;;;;;5.25;0.00;66485.66;10239931;28;20509;-72
2020/12/12 18:21:46;;;;;;;24.00;17.95;;;;;;;5.17;0.00;65907.41;10241416;28;20085;-72
2020/12/12 18:26:44;;;;;;;21.10;16.67;;;;;;;5.15;0.00;65763.66;10239594;28;20041;-70
2020/12/12 18:31:42;;;;;;;21.98;14.82;;;;;;;5.13;0.00;65763.66;10239245;28;20644;-70
2020/12/12 18:36:41;;;;;;;16.55;13.88;;;;;;;5.13;0.00;65763.66;10237770;28;20485;-72
2020/12/12 18:41:40;;;;;;;15.48;12.70;;;;;;;5.10;0.00;65763.66;10238482;28;20482;-71
2020/12/12 18:46:42;;;;;;;17.50;13.77;;;;;;;5.15;0.00;65763.66;10232667;28;20065;-70
2020/12/12 18:51:44;;;;;;;26.88;17.73;;;;;;;5.12;0.00;65763.66;10236771;28;20459;-72
2020/12/12 18:56:44;;;;;;;22.70;15.15;;;;;;;5.14;0.00;65763.66;10233624;28;20072;-72
2020/12/12 19:01:44;;;;;;;54.90;30.40;;;;;;;5.09;0.00;65763.66;10232614;28;20062;-71
2020/12/12 19:06:44;;;;;;;46.38;26.23;;;;;;;5.16;0.00;65763.66;10231381;28;20079;-69
2020/12/12 19:11:44;;;;;;;38.90;23.95;;;;;;;5.15;0.00;65763.66;10235873;28;20096;-69
2020/12/12 19:16:43;;;;;;;10.85;9.75;;;;;;;5.16;0.00;65763.66;10233759;28;20081;-72
2020/12/12 19:21:41;;;;;;;14.15;9.98;;;;;;;5.12;0.00;65763.66;10235123;28;20061;-69
2020/12/12 19:26:40;;;;;;;11.82;9.52;;;;;;;5.63;0.00;65763.66;10226560;28;20501;-68
2020/12/12 19:31:38;;;;;;;15.48;12.40;;;;;;;5.07;0.00;65763.66;10236263;28;20544;-70
2020/12/12 19:36:41;;;;;;;15.85;13.40;;;;;;;5.10;0.00;65763.66;10236706;28;20426;-69
2020/12/12 19:41:39;;;;;;;11.85;9.50;;;;;;;5.09;0.00;65763.66;10236260;28;20072;-69
2020/12/12 19:46:39;;;;;;;9.38;8.18;;;;;;;5.63;0.00;65763.66;10227256;28;20069;-71
2020/12/12 19:51:39;;;;;;;9.20;8.30;;;;;;;5.17;0.00;65763.66;10230277;28;20159;-71
2020/12/12 19:56:41;;;;;;;18.55;11.85;;;;;;;5.63;0.00;65763.66;10236653;28;20061;-72
2020/12/12 20:01:43;;;;;;;27.52;15.40;;;;;;;5.63;0.00;65763.66;10236465;28;20060;-71
2020/12/12 20:06:44;;;;;;;12.93;10.65;;;;;;;5.63;0.00;65763.66;10233760;28;20065;-72
2020/12/12 20:11:45;;;;;;;26.33;19.00;;;;;;;5.63;0.00;65763.66;10255146;28;20069;-72
2020/12/12 20:16:44;;;;;;;7.68;6.45;;;;;;;5.63;0.00;65763.66;10234195;28;20072;-71
2020/12/12 20:21:48;;;;;;;12.68;10.55;;;;;;;5.63;0.00;65763.66;10231951;28;20108;-72
2020/12/12 20:26:49;;;;;;;12.00;9.80;;;;;;;5.63;0.00;65763.66;10235652;28;20539;-73
2020/12/12 20:31:56;;;;;;;8.20;7.15;;;;;;;5.63;0.00;65763.66;10220358;28;20076;-70
2020/12/12 20:36:58;;;;;;;20.33;12.38;;;;;;;5.63;0.00;65763.66;10226882;28;20080;-70
2020/12/12 20:41:56;;;;;;;19.73;14.68;;;;;;;5.63;0.00;65763.66;10224473;28;20466;-63
2020/12/12 20:46:56;;;;;;;13.13;10.45;;;;;;;5.63;0.00;65763.66;10227129;28;20073;-71
2020/12/12 20:51:55;;;;;;;13.25;9.90;;;;;;;5.63;0.00;65763.66;10228267;28;20073;-71
2020/12/12 20:56:53;;;;;;;11.32;9.73;;;;;;;5.63;0.00;65763.66;10227243;28;20069;-71
2020/12/12 21:01:51;;;;;;;9.82;8.73;;;;;;;5.63;0.00;65763.66;10226259;28;20072;-72
2020/12/12 21:06:49;;;;;;;11.75;9.20;;;;;;;5.63;0.00;65763.66;10231974;28;20106;-70
2020/12/12 21:11:48;;;;;;;8.60;6.82;;;;;;;5.63;0.00;65763.66;10228078;28;20083;-71
2020/12/12 21:16:46;;;;;;;41.20;28.75;;;;;;;5.63;0.00;65763.66;10232223;28;20080;-71
2020/12/12 21:21:44;;;;;;;19.13;16.85;;;;;;;5.63;0.00;65763.66;10232226;28;20077;-64
2020/12/12 21:26:41;;;;;;;22.65;17.88;;;;;;;5.63;0.00;65763.66;10226353;28;20486;-62
2020/12/12 21:31:40;;;;;;;14.27;12.10;;;;;;;5.63;0.00;65763.66;10225581;28;20076;-71
2020/12/12 21:36:38;;;;;;;29.88;18.88;;;;;;;5.63;0.00;65763.66;10228873;28;20069;-71
2020/12/12 21:41:42;;;;;;;15.05;11.52;;;;;;;5.63;0.00;65763.66;10231069;28;20064;-71
2020/12/12 21:46:41;;;;;;;21.42;12.77;;;;;;;5.63;0.00;65763.66;10228948;28;20092;-71
2020/12/12 21:51:56;;;;;;;81.80;56.88;;;;;;;5.63;0.00;65763.66;10227106;28;20077;-72
2020/12/12 21:56:55;;;;;;;13.40;10.55;;;;;;;5.63;0.00;65763.66;10231126;28;20054;-72
2020/12/12 22:02:02;;;;;;;14.10;11.27;;;;;;;5.63;0.00;65763.66;10231161;28;20300;-69
2020/12/12 22:07:04;;;;;;;22.75;17.58;;;;;;;5.63;0.00;65763.66;10229674;28;20149;-72
2020/12/12 22:12:05;;;;;;;15.35;13.68;;;;;;;5.63;0.00;65763.66;10232622;28;20099;-72
2020/12/12 22:17:04;;;;;;;12.80;9.57;;;;;;;5.63;0.00;65763.66;10232410;28;20077;-72
2020/12/12 22:22:18;;;;;;;12.45;9.80;;;;;;;5.63;0.00;65763.66;10225350;28;20081;-71
2020/12/12 22:27:17;;;;;;;11.85;8.35;;;;;;;5.63;0.00;65763.66;10230123;28;20069;-70
2020/12/12 22:32:17;;;;;;;13.13;11.45;;;;;;;5.63;0.00;65763.66;10220534;28;20148;-71
2020/12/12 22:37:18;;;;;;;12.27;10.98;;;;;;;5.63;0.00;65763.66;10210534;28;20076;-70
2020/12/12 22:42:16;;;;;;;7.78;6.28;;;;;;;5.63;0.00;65763.66;10227533;28;20091;-70
2020/12/12 22:47:14;;;;;;;7.30;6.07;;;;;;;5.63;0.00;65763.66;10239141;28;20418;-70
2020/12/12 22:52:13;;;;;;;7.28;5.88;;;;;;;5.63;0.00;65763.66;10235734;28;20073;-71
2020/12/12 22:57:11;;;;;;;14.20;9.57;;;;;;;5.63;0.00;65763.66;10234846;28;20080;-71
2020/12/12 23:02:10;;;;;;;13.18;9.60;;;;;;;5.63;0.00;65763.66;10231726;28;20534;-70
2020/12/12 23:07:08;;;;;;;9.75;7.35;;;;;;;5.63;0.00;65763.66;10226762;28;20095;-72
2020/12/12 23:12:08;;;;;;;10.13;6.45;;;;;;;93.01;0.00;65763.66;10229752;28;20092;-72
2020/12/12 23:17:12;;;;;;;27.17;17.17;;;;;;;78.65;0.00;65763.66;10238829;28;20051;-70
2020/12/12 23:22:10;;;;;;;30.23;17.05;;;;;;;77.35;0.00;65763.66;10199315;28;20502;-71
2020/12/12 23:27:09;;;;;;;8.90;8.00;;;;;;;85.18;0.00;65763.66;10223456;28;20080;-71